createdAt,value
2022-08-05T00:01:36.268Z,38.12
2022-08-05T00:04:17.494Z,37.85
2022-08-05T00:06:45.100Z,37.11
2022-08-05T00:09:15.768Z,37.01
2022-08-05T00:11:49.525Z,37.16
2022-08-05T00:14:29.320Z,36.60
2022-08-05T00:17:01.882Z,37.24
2022-08-05T00:19:33.145Z,37.25
2022-08-05T00:22:04.863Z,37.17
2022-08-05T00:24:34.339Z,38.81
2022-08-05T00:27:04.665Z,38.84
2022-08-05T00:29:38.458Z,40.35
2022-08-05T00:32:12.114Z,40.21
2022-08-05T00:35:04.281Z,40.22
2022-08-05T00:37:50.632Z,40.51
2022-08-05T00:40:27.115Z,40.91
2022-08-05T00:43:02.019Z,40.86
2022-08-05T00:45:43.132Z,40.51
2022-08-05T00:48:27.705Z,39.80
2022-08-05T00:50:59.964Z,39.77
2022-08-05T00:54:01.431Z,38.86
2022-08-05T00:56:24.671Z,38.04
2022-08-05T00:58:52.263Z,37.48
2022-08-05T01:01:24.995Z,38.29
2022-08-05T01:04:14.320Z,38.53
2022-08-05T01:06:43.869Z,39.04
2022-08-05T01:09:17.226Z,39.14
2022-08-05T01:11:49.982Z,39.96
2022-08-05T01:14:27.926Z,39.18
2022-08-05T01:17:05.501Z,39.62
2022-08-05T01:20:00.862Z,39.93
2022-08-05T01:23:14.993Z,39.24
2022-08-05T01:26:11.174Z,39.55
2022-08-05T01:28:55.948Z,39.32
2022-08-05T01:31:29.907Z,39.66
2022-08-05T01:34:26.920Z,39.96
2022-08-05T01:37:02.007Z,40.25
2022-08-05T01:39:46.390Z,39.98
2022-08-05T01:42:19.937Z,39.59
2022-08-05T01:44:53.935Z,39.08
2022-08-05T01:47:24.674Z,38.98
2022-08-05T01:50:14.282Z,38.80
2022-08-05T01:52:50.034Z,38.82
2022-08-05T01:55:20.848Z,38.70
2022-08-05T01:58:29.709Z,39.03
2022-08-05T02:00:42.999Z,38.52
2022-08-05T02:03:24.447Z,38.76
2022-08-05T02:06:03.706Z,38.78
2022-08-05T02:08:58.033Z,37.67
2022-08-05T02:11:33.135Z,38.33
2022-08-05T02:14:12.930Z,38.43
2022-08-05T02:16:52.279Z,38.12
2022-08-05T02:19:34.455Z,38.18
2022-08-05T02:22:02.176Z,38.71
2022-08-05T02:24:37.766Z,40.84
2022-08-05T02:27:10.420Z,41.43
2022-08-05T02:29:58.592Z,40.12
2022-08-05T02:32:31.590Z,40.40
2022-08-05T02:35:13.496Z,40.91
2022-08-05T02:37:46.592Z,42.85
2022-08-05T02:40:24.089Z,43.81
2022-08-05T02:42:54.011Z,44.38
2022-08-05T02:45:25.208Z,44.31
2022-08-05T02:48:07.059Z,44.96
2022-08-05T02:50:44.049Z,44.83
2022-08-05T02:53:16.127Z,44.83
2022-08-05T02:55:54.507Z,44.64
2022-08-05T02:58:26.667Z,44.98
2022-08-05T03:01:01.968Z,44.93
2022-08-05T03:03:34.237Z,44.64
2022-08-05T03:06:54.657Z,44.74
2022-08-05T03:09:07.857Z,44.77
2022-08-05T03:11:53.496Z,44.72
2022-08-05T03:14:23.112Z,44.63
2022-08-05T03:16:51.844Z,44.97
2022-08-05T03:19:34.470Z,45.26
2022-08-05T03:22:04.679Z,44.78
2022-08-05T03:24:33.600Z,44.79
2022-08-05T03:27:01.364Z,45.38
2022-08-05T03:29:45.734Z,45.85
2022-08-05T03:32:17.274Z,45.83
2022-08-05T03:34:51.259Z,45.99
2022-08-05T03:37:21.489Z,45.93
2022-08-05T03:40:01.280Z,45.70
2022-08-05T03:42:32.132Z,45.87
2022-08-05T03:45:21.912Z,46.13
2022-08-05T03:47:57.089Z,46.00
2022-08-05T03:50:34.098Z,45.54
2022-08-05T03:55:34.716Z,44.77
2022-08-05T03:56:30.686Z,45.25
2022-08-05T03:59:06.732Z,45.52
2022-08-05T04:01:37.976Z,45.29
2022-08-05T04:04:09.943Z,44.91
2022-08-05T04:06:47.396Z,44.15
2022-08-05T04:09:26.028Z,43.93
2022-08-05T04:11:56.387Z,44.45
2022-08-05T04:14:29.994Z,44.69
2022-08-05T04:17:00.414Z,44.60
2022-08-05T04:19:31.338Z,44.07
2022-08-05T04:22:05.815Z,44.16
2022-08-05T04:24:44.725Z,44.03
2022-08-05T04:27:41.760Z,44.13
2022-08-05T04:30:11.676Z,43.82
2022-08-05T04:32:39.151Z,43.46
2022-08-05T04:35:17.377Z,44.32
2022-08-05T04:38:01.472Z,44.32
2022-08-05T04:40:44.555Z,43.96
2022-08-05T04:43:22.015Z,44.14
2022-08-05T04:45:54.905Z,43.78
2022-08-05T04:48:28.077Z,43.30
2022-08-05T04:51:02.581Z,43.30
2022-08-05T04:53:39.486Z,40.08
2022-08-05T04:56:33.214Z,36.82
2022-08-05T04:58:58.233Z,35.34
2022-08-05T05:02:05.471Z,34.55
2022-08-05T05:04:13.450Z,33.08
2022-08-05T05:06:44.700Z,32.77
2022-08-05T05:09:17.684Z,32.39
2022-08-05T05:11:55.430Z,30.96
2022-08-05T05:14:31.306Z,30.55
2022-08-05T05:17:00.819Z,30.40
2022-08-05T05:19:36.482Z,30.44
2022-08-05T05:22:22.759Z,30.58
2022-08-05T05:24:58.957Z,30.54
2022-08-05T05:27:45.091Z,29.81
2022-08-05T05:30:30.878Z,31.11
2022-08-05T05:33:00.759Z,31.52
2022-08-05T05:35:38.133Z,31.04
2022-08-05T05:38:09.316Z,32.01
2022-08-05T05:40:49.790Z,33.66
2022-08-05T05:43:22.281Z,34.71
2022-08-05T05:46:12.257Z,34.99
2022-08-05T05:48:44.505Z,33.32
2022-08-05T05:51:15.088Z,33.60
2022-08-05T05:53:57.428Z,33.40
2022-08-05T05:56:32.845Z,31.18
2022-08-05T05:59:08.189Z,30.16
2022-08-05T06:01:39.514Z,30.10
2022-08-05T06:04:14.534Z,30.72
2022-08-05T06:06:46.619Z,31.71
2022-08-05T06:09:24.606Z,31.38
2022-08-05T06:12:01.457Z,30.21
2022-08-05T06:14:31.363Z,29.50
2022-08-05T06:16:59.366Z,28.42
2022-08-05T06:19:35.447Z,27.40
2022-08-05T06:22:07.459Z,27.99
2022-08-05T06:24:41.451Z,26.81
2022-08-05T06:28:08.962Z,27.78
2022-08-05T06:30:20.960Z,26.82
2022-08-05T06:32:50.597Z,27.64
2022-08-05T06:36:03.007Z,28.10
2022-08-05T06:38:11.586Z,27.44
2022-08-05T06:40:44.263Z,27.24
2022-08-05T06:43:59.441Z,25.49
2022-08-05T06:46:06.909Z,24.90
2022-08-05T06:48:47.038Z,24.12
2022-08-05T06:51:30.183Z,24.06
2022-08-05T06:54:03.512Z,23.96
2022-08-05T06:56:34.116Z,23.57
2022-08-05T06:59:08.510Z,24.01
2022-08-05T07:01:37.364Z,23.10
2022-08-05T07:04:08.431Z,23.30
2022-08-05T07:06:35.892Z,23.89
2022-08-05T07:09:04.658Z,23.16
2022-08-05T07:11:36.878Z,24.68
2022-08-05T07:14:30.147Z,24.60
2022-08-05T07:18:01.316Z,24.57
2022-08-05T07:22:42.014Z,25.36
2022-08-05T07:25:23.720Z,24.77
2022-08-05T07:28:07.241Z,24.33
2022-08-05T07:30:39.696Z,24.26
2022-08-05T07:33:15.627Z,23.77
2022-08-05T07:36:04.594Z,23.43
2022-08-05T07:38:38.667Z,22.26
2022-08-05T07:42:08.710Z,22.02
2022-08-05T07:44:18.685Z,22.39
2022-08-05T07:46:49.262Z,21.85
2022-08-05T07:49:18.703Z,22.24
2022-08-05T07:51:53.797Z,23.08
2022-08-05T07:54:31.207Z,22.59
2022-08-05T07:57:17.890Z,22.11
2022-08-05T07:59:52.303Z,22.38
2022-08-05T08:02:31.261Z,23.62
2022-08-05T08:05:16.657Z,24.58
2022-08-05T08:08:00.146Z,24.52
2022-08-05T08:10:28.574Z,24.10
2022-08-05T08:12:58.509Z,23.50
2022-08-05T08:15:37.387Z,23.95
2022-08-05T08:18:14.397Z,22.78
2022-08-05T08:21:03.001Z,23.28
2022-08-05T08:24:01.006Z,22.82
2022-08-05T08:26:27.051Z,22.19
2022-08-05T08:29:02.048Z,21.66
2022-08-05T08:31:45.413Z,23.85
2022-08-05T08:34:13.646Z,23.65
2022-08-05T08:36:47.584Z,22.50
2022-08-05T08:39:20.408Z,21.89
2022-08-05T08:41:59.863Z,20.26
2022-08-05T08:45:18.819Z,20.22
2022-08-05T08:48:06.002Z,20.69
2022-08-05T08:50:31.898Z,21.54
2022-08-05T08:53:12.017Z,20.90
2022-08-05T08:56:04.015Z,20.59
2022-08-05T08:58:37.055Z,21.48
2022-08-05T09:01:16.225Z,20.87
2022-08-05T09:03:57.228Z,20.65
2022-08-05T09:06:29.818Z,19.98
2022-08-05T09:09:02.444Z,20.54
2022-08-05T09:11:53.370Z,20.93
2022-08-05T09:14:56.692Z,21.11
2022-08-05T09:17:40.156Z,20.19
2022-08-05T09:20:02.377Z,20.66
2022-08-05T09:23:19.176Z,20.46
2022-08-05T09:26:00.858Z,20.33
2022-08-05T09:28:34.344Z,20.02
2022-08-05T09:31:22.174Z,20.71
2022-08-05T09:33:56.813Z,20.76
2022-08-05T09:36:37.833Z,20.22
2022-08-05T09:39:18.358Z,19.64
2022-08-05T09:42:04.993Z,19.38
2022-08-05T09:44:41.520Z,19.26
2022-08-05T09:47:15.801Z,19.73
2022-08-05T09:50:00.638Z,19.91
2022-08-05T09:52:36.620Z,19.02
2022-08-05T09:55:57.611Z,20.17
2022-08-05T09:58:11.226Z,21.17
2022-08-05T10:00:38.830Z,20.84
2022-08-05T10:03:11.547Z,20.32
2022-08-05T10:05:42.088Z,20.49
2022-08-05T10:08:37.588Z,20.55
2022-08-05T10:10:59.845Z,20.20
2022-08-05T10:13:39.398Z,19.87
2022-08-05T10:16:32.111Z,20.17
2022-08-05T10:19:08.439Z,20.09
2022-08-05T10:21:40.146Z,20.13
2022-08-05T10:24:13.701Z,20.82
2022-08-05T10:26:49.051Z,20.72
2022-08-05T10:30:06.893Z,20.38
2022-08-05T10:32:54.509Z,19.98
2022-08-05T10:35:01.477Z,20.14
2022-08-05T10:37:37.159Z,21.60
2022-08-05T10:40:27.966Z,20.71
2022-08-05T10:43:04.712Z,21.04
2022-08-05T10:45:40.227Z,20.48
2022-08-05T10:48:35.268Z,19.80
2022-08-05T10:51:21.733Z,23.11
2022-08-05T10:53:54.473Z,23.27
2022-08-05T10:56:27.321Z,22.32
2022-08-05T10:58:57.643Z,23.22
2022-08-05T11:01:55.319Z,23.33
2022-08-05T11:04:31.010Z,23.25
2022-08-05T11:07:01.616Z,23.20
2022-08-05T11:09:45.575Z,22.90
2022-08-05T11:12:41.222Z,23.31
2022-08-05T11:16:01.362Z,22.64
2022-08-05T11:18:15.127Z,21.54
2022-08-05T11:20:57.960Z,22.16
2022-08-05T11:24:05.225Z,21.35
2022-08-05T11:26:43.479Z,21.05
2022-08-05T11:29:38.027Z,20.68
2022-08-05T11:32:28.865Z,21.23
2022-08-05T11:34:57.806Z,21.00
2022-08-05T11:38:36.405Z,20.88
2022-08-05T11:41:34.679Z,20.68
2022-08-05T11:44:04.682Z,20.15
2022-08-05T11:47:10.181Z,19.98
2022-08-05T11:49:34.077Z,19.91
2022-08-05T11:52:01.892Z,19.02
2022-08-05T11:54:40.321Z,18.95
2022-08-05T11:57:25.889Z,18.90
2022-08-05T11:59:55.082Z,18.87
2022-08-05T12:02:33.079Z,19.33
2022-08-05T12:05:06.968Z,19.07
2022-08-05T12:08:08.963Z,18.88
2022-08-05T12:10:43.387Z,18.91
2022-08-05T12:13:27.703Z,18.56
2022-08-05T12:16:14.951Z,19.06
2022-08-05T12:18:52.338Z,19.66
2022-08-05T12:21:30.454Z,20.25
2022-08-05T12:24:06.873Z,20.41
2022-08-05T12:26:43.905Z,20.09
2022-08-05T12:29:22.871Z,22.75
2022-08-05T12:32:02.415Z,23.42
2022-08-05T12:34:35.766Z,23.58
2022-08-05T12:37:30.125Z,23.44
2022-08-05T12:40:03.184Z,23.14
2022-08-05T12:42:31.547Z,23.33
2022-08-05T12:45:10.510Z,23.47
2022-08-05T12:47:50.346Z,23.35
2022-08-05T12:50:26.076Z,24.06
2022-08-05T12:53:00.274Z,23.89
2022-08-05T12:55:32.587Z,24.14
2022-08-05T12:58:49.097Z,23.42
2022-08-05T13:02:00.938Z,23.61
2022-08-05T13:03:41.991Z,24.30
2022-08-05T13:06:20.102Z,24.39
2022-08-05T13:08:52.073Z,24.33
2022-08-05T13:12:02.061Z,24.64
2022-08-05T13:14:36.263Z,24.54
2022-08-05T13:17:20.545Z,24.70
2022-08-05T13:20:25.287Z,24.23
2022-08-05T13:22:56.635Z,24.28
2022-08-05T13:25:52.283Z,24.75
2022-08-05T13:28:14.296Z,24.73
2022-08-05T13:30:42.903Z,24.71
2022-08-05T13:33:14.160Z,23.94
2022-08-05T13:35:43.352Z,23.83
2022-08-05T13:38:30.668Z,25.44
2022-08-05T13:41:01.720Z,26.08
2022-08-05T13:43:45.924Z,26.22
2022-08-05T13:46:30.706Z,26.72
2022-08-05T13:49:10.237Z,25.80
2022-08-05T13:51:45.762Z,25.23
2022-08-05T13:54:20.883Z,26.19
2022-08-05T13:56:52.629Z,26.03
2022-08-05T13:59:24.276Z,25.05
2022-08-05T14:01:56.412Z,24.87
2022-08-05T14:04:49.648Z,25.71
2022-08-05T14:07:59.893Z,25.75
2022-08-05T14:10:28.870Z,25.28
2022-08-05T14:12:58.908Z,25.27
2022-08-05T14:16:08.907Z,25.23
2022-08-05T14:18:23.037Z,25.42
2022-08-05T14:20:54.419Z,26.06
2022-08-05T14:23:25.639Z,26.61
2022-08-05T14:25:58.024Z,26.45
2022-08-05T14:28:30.173Z,26.33
2022-08-05T14:30:59.474Z,25.40
2022-08-05T14:33:56.584Z,26.57
2022-08-05T14:36:20.588Z,26.17
2022-08-05T14:38:49.803Z,25.43
2022-08-05T14:41:17.826Z,25.48
2022-08-05T14:43:57.593Z,25.95
2022-08-05T14:46:30.927Z,24.62
2022-08-05T14:49:06.569Z,23.55
2022-08-05T14:51:34.744Z,23.87
2022-08-05T14:54:28.785Z,23.92
2022-08-05T14:56:51.051Z,26.88
2022-08-05T14:59:22.605Z,27.93
2022-08-05T15:01:51.290Z,27.90
2022-08-05T15:04:22.303Z,27.74
2022-08-05T15:06:51.813Z,27.27
2022-08-05T15:09:51.462Z,26.91
2022-08-05T15:12:09.514Z,27.21
2022-08-05T15:14:48.458Z,27.08
2022-08-05T15:17:45.634Z,27.62
2022-08-05T15:20:15.533Z,27.83
2022-08-05T15:22:46.184Z,27.78
2022-08-05T15:25:23.227Z,27.67
2022-08-05T15:27:51.949Z,27.71
2022-08-05T15:30:20.218Z,27.54
2022-08-05T15:32:51.423Z,27.33
2022-08-05T15:35:18.987Z,27.21
2022-08-05T15:38:31.876Z,27.21
2022-08-05T15:41:03.676Z,27.92
2022-08-05T15:43:25.904Z,28.00
2022-08-05T15:46:00.674Z,28.54
2022-08-05T15:48:30.200Z,28.93
2022-08-05T15:51:03.333Z,28.33
2022-08-05T15:53:38.354Z,27.84
2022-08-05T15:56:20.764Z,28.54
2022-08-05T15:58:49.066Z,28.65
2022-08-05T16:01:18.152Z,28.87
2022-08-05T16:03:50.397Z,28.72
2022-08-05T16:06:20.945Z,28.75
2022-08-05T16:08:55.263Z,28.98
2022-08-05T16:11:39.920Z,28.50
2022-08-05T16:14:10.028Z,28.43
2022-08-05T16:16:46.020Z,28.48
2022-08-05T16:19:18.787Z,28.29
2022-08-05T16:21:59.371Z,27.72
2022-08-05T16:24:40.143Z,27.82
2022-08-05T16:27:10.287Z,27.92
2022-08-05T16:29:49.993Z,28.46
2022-08-05T16:32:28.709Z,28.48
2022-08-05T16:34:58.861Z,28.07
2022-08-05T16:38:02.516Z,27.90
2022-08-05T16:40:26.758Z,27.98
2022-08-05T16:42:57.009Z,27.90
2022-08-05T16:46:07.795Z,27.58
2022-08-05T16:48:11.815Z,27.85
2022-08-05T16:50:54.248Z,27.66
2022-08-05T16:53:32.433Z,27.36
2022-08-05T16:56:00.218Z,27.39
2022-08-05T16:58:27.978Z,27.08
2022-08-05T17:00:56.524Z,27.30
2022-08-05T17:03:27.850Z,27.19
2022-08-05T17:05:59.443Z,27.20
2022-08-05T17:08:35.886Z,27.72
2022-08-05T17:11:16.905Z,27.69
2022-08-05T17:13:46.541Z,28.19
2022-08-05T17:16:32.913Z,28.25
2022-08-05T17:19:01.716Z,27.78
2022-08-05T17:21:35.311Z,28.43
2022-08-05T17:24:28.173Z,28.67
2022-08-05T17:26:58.787Z,29.28
2022-08-05T17:29:34.043Z,29.76
2022-08-05T17:32:16.821Z,29.76
2022-08-05T17:34:49.197Z,30.05
2022-08-05T17:37:41.482Z,30.69
2022-08-05T17:40:15.111Z,30.82
2022-08-05T17:42:50.604Z,31.00
2022-08-05T17:45:38.063Z,31.50
2022-08-05T17:48:09.146Z,31.78
2022-08-05T17:50:47.332Z,31.56
2022-08-05T17:53:18.411Z,31.58
2022-08-05T17:55:48.385Z,31.90
2022-08-05T17:58:21.638Z,31.63
2022-08-05T18:00:59.987Z,32.14
2022-08-05T18:03:59.009Z,31.96
2022-08-05T18:06:15.850Z,32.16
2022-08-05T18:08:52.626Z,32.19
2022-08-05T18:11:23.685Z,32.38
2022-08-05T18:13:53.642Z,32.25
2022-08-05T18:16:20.928Z,32.79
2022-08-05T18:18:49.956Z,33.15
2022-08-05T18:21:19.842Z,33.39
2022-08-05T18:23:53.882Z,33.08
2022-08-05T18:26:27.484Z,33.26
2022-08-05T18:28:57.675Z,33.14
2022-08-05T18:31:25.234Z,33.26
2022-08-05T18:33:55.249Z,32.98
2022-08-05T18:36:28.544Z,33.03
2022-08-05T18:38:56.340Z,33.16
2022-08-05T18:41:56.292Z,33.32
2022-08-05T18:44:12.738Z,33.22
2022-08-05T18:46:41.311Z,32.94
2022-08-05T18:49:30.519Z,33.03
2022-08-05T18:52:33.118Z,33.02
2022-08-05T18:55:02.759Z,33.31
2022-08-05T18:57:43.193Z,33.21
2022-08-05T19:00:21.032Z,33.66
2022-08-05T19:02:54.901Z,33.84
2022-08-05T19:06:11.531Z,34.52
2022-08-05T19:08:13.755Z,34.57
2022-08-05T19:10:42.819Z,35.04
2022-08-05T19:13:12.320Z,35.14
2022-08-05T19:16:00.257Z,35.01
2022-08-05T19:18:32.326Z,35.75
2022-08-05T19:20:59.935Z,35.71
2022-08-05T19:24:06.440Z,35.83
2022-08-05T19:26:16.778Z,35.45
2022-08-05T19:28:44.247Z,35.72
2022-08-05T19:31:14.998Z,35.34
2022-08-05T19:33:48.229Z,35.53
2022-08-05T19:36:26.521Z,35.34
2022-08-05T19:39:00.929Z,35.32
2022-08-05T19:41:58.263Z,35.89
2022-08-05T19:44:20.397Z,35.53
2022-08-05T19:46:50.271Z,35.94
2022-08-05T19:49:18.558Z,35.16
2022-08-05T19:52:08.778Z,36.03
2022-08-05T19:54:35.286Z,35.70
2022-08-05T19:57:06.620Z,35.25
2022-08-05T20:00:00.335Z,35.60
2022-08-05T20:02:27.710Z,36.14
2022-08-05T20:04:58.796Z,36.25
2022-08-05T20:07:48.836Z,36.74
2022-08-05T20:10:24.994Z,37.33
2022-08-05T20:12:53.425Z,37.14
2022-08-05T20:15:48.758Z,37.33
2022-08-05T20:18:10.556Z,37.46
2022-08-05T20:20:57.579Z,37.48
2022-08-05T20:23:39.727Z,37.93
2022-08-05T20:26:17.456Z,37.73
2022-08-05T20:28:51.116Z,37.67
2022-08-05T20:31:21.688Z,37.79
2022-08-05T20:33:52.109Z,37.94
2022-08-05T20:36:20.920Z,37.55
2022-08-05T20:38:54.644Z,37.41
2022-08-05T20:41:44.391Z,37.62
2022-08-05T20:44:15.417Z,37.05
2022-08-05T20:46:48.203Z,37.26
2022-08-05T20:49:23.997Z,37.59
2022-08-05T20:51:53.733Z,37.50
2022-08-05T20:54:25.795Z,37.87
2022-08-05T20:57:11.181Z,37.24
2022-08-05T20:59:46.186Z,36.99
2022-08-05T21:02:29.802Z,36.79
2022-08-05T21:04:58.617Z,36.84
2022-08-05T21:07:50.976Z,37.06
2022-08-05T21:10:18.912Z,36.89
2022-08-05T21:13:08.812Z,37.29
2022-08-05T21:15:34.569Z,37.54
2022-08-05T21:18:02.260Z,37.54
2022-08-05T21:20:33.541Z,38.02
2022-08-05T21:23:03.057Z,37.50
2022-08-05T21:25:33.922Z,36.80
2022-08-05T21:28:03.472Z,36.78
2022-08-05T21:30:31.888Z,36.88
2022-08-05T21:33:01.728Z,37.16
2022-08-05T21:35:43.674Z,36.64
2022-08-05T21:38:18.042Z,37.35
2022-08-05T21:40:45.460Z,37.90
2022-08-05T21:43:24.010Z,37.76
2022-08-05T21:45:57.605Z,38.39
2022-08-05T21:48:29.110Z,38.11
2022-08-05T21:51:01.436Z,38.75
2022-08-05T21:53:30.440Z,38.98
2022-08-05T21:56:09.528Z,38.94
2022-08-05T21:58:57.166Z,39.20
2022-08-05T22:01:26.183Z,39.04
2022-08-05T22:03:54.137Z,39.05
2022-08-05T22:06:35.498Z,38.67
2022-08-05T22:09:13.640Z,38.78
2022-08-05T22:11:46.722Z,39.26
2022-08-05T22:14:35.359Z,38.55
2022-08-05T22:17:06.736Z,38.99
2022-08-05T22:19:57.486Z,39.55
2022-08-05T22:22:27.731Z,40.15
2022-08-05T22:25:18.136Z,39.86
2022-08-05T22:28:08.943Z,40.34
2022-08-05T22:30:56.169Z,40.52
2022-08-05T22:33:57.694Z,40.51
2022-08-05T22:36:15.631Z,40.35
2022-08-05T22:38:48.541Z,40.04
2022-08-05T22:41:25.980Z,40.26
2022-08-05T22:44:09.667Z,40.29
2022-08-05T22:46:40.900Z,40.17
2022-08-05T22:49:23.472Z,40.05
2022-08-05T22:52:06.401Z,40.28
2022-08-05T22:54:36.767Z,40.32
2022-08-05T22:57:07.042Z,40.25
2022-08-05T22:59:48.503Z,40.34
2022-08-05T23:02:28.935Z,40.26
2022-08-05T23:05:04.859Z,40.68
2022-08-05T23:07:44.748Z,40.29
2022-08-05T23:10:14.279Z,40.42
2022-08-05T23:12:43.733Z,40.25
2022-08-05T23:15:12.146Z,40.03
2022-08-05T23:18:01.354Z,39.59
2022-08-05T23:20:27.661Z,39.92
2022-08-05T23:22:56.573Z,39.77
2022-08-05T23:25:51.504Z,39.95
2022-08-05T23:28:15.876Z,40.09
2022-08-05T23:30:53.488Z,40.15
2022-08-05T23:33:26.238Z,40.36
2022-08-05T23:36:10.659Z,40.04
2022-08-05T23:38:38.690Z,40.21
2022-08-05T23:41:06.327Z,40.17
2022-08-05T23:44:02.993Z,40.26
2022-08-05T23:46:22.455Z,40.62
2022-08-05T23:49:00.389Z,40.36
2022-08-05T23:51:53.920Z,39.99
2022-08-05T23:54:25.783Z,40.51
2022-08-05T23:56:55.610Z,40.17
